sensor_id;sensor_type;location;lat;lon;timestamp;P1;durP1;ratioP1;P2;durP2;ratioP2
22861;SDS011;11598;50.652;6.172;2024-01-30T00:05:23;12.52;;;6.13;;
22861;SDS011;11598;50.652;6.172;2024-01-30T00:15:23;9.40;;;5.57;;
22861;SDS011;11598;50.652;6.172;2024-01-30T00:25:23;9.18;;;5.43;;
22861;SDS011;11598;50.652;6.172;2024-01-30T00:35:24;10.65;;;5.15;;
22861;SDS011;11598;50.652;6.172;2024-01-30T00:45:24;9.40;;;4.78;;
22861;SDS011;11598;50.652;6.172;2024-01-30T00:55:24;8.50;;;4.38;;
22861;SDS011;11598;50.652;6.172;2024-01-30T01:05:25;9.23;;;5.00;;
22861;SDS011;11598;50.652;6.172;2024-01-30T01:15:25;9.87;;;4.70;;
22861;SDS011;11598;50.652;6.172;2024-01-30T01:25:26;8.98;;;4.43;;
22861;SDS011;11598;50.652;6.172;2024-01-30T01:35:26;9.13;;;4.25;;
22861;SDS011;11598;50.652;6.172;2024-01-30T01:45:27;8.38;;;4.47;;
22861;SDS011;11598;50.652;6.172;2024-01-30T01:55:27;9.43;;;3.90;;
22861;SDS011;11598;50.652;6.172;2024-01-30T02:05:30;7.10;;;3.90;;
22861;SDS011;11598;50.652;6.172;2024-01-30T02:15:31;8.55;;;3.92;;
22861;SDS011;11598;50.652;6.172;2024-01-30T02:25:33;10.48;;;3.95;;
22861;SDS011;11598;50.652;6.172;2024-01-30T02:35:35;8.73;;;4.25;;
22861;SDS011;11598;50.652;6.172;2024-01-30T02:45:35;9.10;;;4.18;;
22861;SDS011;11598;50.652;6.172;2024-01-30T02:55:35;7.95;;;4.28;;
22861;SDS011;11598;50.652;6.172;2024-01-30T03:05:36;9.30;;;4.03;;
22861;SDS011;11598;50.652;6.172;2024-01-30T03:15:36;9.60;;;4.30;;
22861;SDS011;11598;50.652;6.172;2024-01-30T03:25:36;9.52;;;4.60;;
22861;SDS011;11598;50.652;6.172;2024-01-30T03:35:37;8.15;;;4.13;;
22861;SDS011;11598;50.652;6.172;2024-01-30T03:45:37;7.57;;;4.40;;
22861;SDS011;11598;50.652;6.172;2024-01-30T03:55:38;10.55;;;5.38;;
22861;SDS011;11598;50.652;6.172;2024-01-30T04:05:39;8.55;;;5.32;;
22861;SDS011;11598;50.652;6.172;2024-01-30T04:15:39;13.55;;;5.97;;
22861;SDS011;11598;50.652;6.172;2024-01-30T04:25:40;10.82;;;5.30;;
22861;SDS011;11598;50.652;6.172;2024-01-30T04:35:40;14.10;;;6.28;;
22861;SDS011;11598;50.652;6.172;2024-01-30T04:45:41;12.15;;;5.28;;
22861;SDS011;11598;50.652;6.172;2024-01-30T04:55:41;11.27;;;5.65;;
22861;SDS011;11598;50.652;6.172;2024-01-30T05:05:42;9.55;;;5.75;;
22861;SDS011;11598;50.652;6.172;2024-01-30T05:15:42;12.20;;;6.15;;
22861;SDS011;11598;50.652;6.172;2024-01-30T05:25:42;13.85;;;6.47;;
22861;SDS011;11598;50.652;6.172;2024-01-30T05:35:43;11.98;;;6.03;;
22861;SDS011;11598;50.652;6.172;2024-01-30T05:45:43;10.35;;;5.93;;
22861;SDS011;11598;50.652;6.172;2024-01-30T05:55:43;9.30;;;5.57;;
22861;SDS011;11598;50.652;6.172;2024-01-30T06:05:44;12.15;;;5.15;;
22861;SDS011;11598;50.652;6.172;2024-01-30T06:15:44;9.98;;;4.53;;
22861;SDS011;11598;50.652;6.172;2024-01-30T06:25:45;13.93;;;5.32;;
22861;SDS011;11598;50.652;6.172;2024-01-30T06:35:45;13.73;;;5.75;;
22861;SDS011;11598;50.652;6.172;2024-01-30T06:45:45;9.10;;;4.90;;
22861;SDS011;11598;50.652;6.172;2024-01-30T06:55:46;13.23;;;4.97;;
22861;SDS011;11598;50.652;6.172;2024-01-30T07:05:46;14.02;;;6.03;;
22861;SDS011;11598;50.652;6.172;2024-01-30T07:15:47;9.18;;;5.82;;
22861;SDS011;11598;50.652;6.172;2024-01-30T07:25:47;9.48;;;5.45;;
22861;SDS011;11598;50.652;6.172;2024-01-30T07:35:52;11.30;;;5.77;;
22861;SDS011;11598;50.652;6.172;2024-01-30T07:45:52;11.63;;;6.13;;
22861;SDS011;11598;50.652;6.172;2024-01-30T07:55:53;13.65;;;6.55;;
22861;SDS011;11598;50.652;6.172;2024-01-30T08:05:53;11.50;;;6.20;;
22861;SDS011;11598;50.652;6.172;2024-01-30T08:15:54;11.65;;;5.57;;
22861;SDS011;11598;50.652;6.172;2024-01-30T08:25:54;11.32;;;5.68;;
22861;SDS011;11598;50.652;6.172;2024-01-30T08:35:54;11.95;;;5.82;;
22861;SDS011;11598;50.652;6.172;2024-01-30T08:45:55;10.40;;;5.00;;
22861;SDS011;11598;50.652;6.172;2024-01-30T08:55:57;9.05;;;4.97;;
22861;SDS011;11598;50.652;6.172;2024-01-30T09:05:59;9.20;;;4.43;;
22861;SDS011;11598;50.652;6.172;2024-01-30T09:15:59;11.38;;;4.20;;
22861;SDS011;11598;50.652;6.172;2024-01-30T09:25:59;10.50;;;4.20;;
22861;SDS011;11598;50.652;6.172;2024-01-30T09:36:00;9.70;;;3.45;;
22861;SDS011;11598;50.652;6.172;2024-01-30T09:46:01;13.80;;;4.63;;
22861;SDS011;11598;50.652;6.172;2024-01-30T09:56:03;10.05;;;3.40;;
22861;SDS011;11598;50.652;6.172;2024-01-30T10:06:05;8.88;;;3.38;;
22861;SDS011;11598;50.652;6.172;2024-01-30T10:16:06;12.70;;;3.17;;
22861;SDS011;11598;50.652;6.172;2024-01-30T10:26:07;14.45;;;3.53;;
22861;SDS011;11598;50.652;6.172;2024-01-30T10:36:08;14.52;;;3.63;;
22861;SDS011;11598;50.652;6.172;2024-01-30T10:46:18;9.07;;;3.30;;
22861;SDS011;11598;50.652;6.172;2024-01-30T10:56:23;8.88;;;3.60;;
22861;SDS011;11598;50.652;6.172;2024-01-30T11:06:24;10.25;;;3.47;;
22861;SDS011;11598;50.652;6.172;2024-01-30T11:16:30;11.80;;;4.15;;
22861;SDS011;11598;50.652;6.172;2024-01-30T11:26:32;9.85;;;4.22;;
22861;SDS011;11598;50.652;6.172;2024-01-30T11:36:32;10.73;;;4.20;;
22861;SDS011;11598;50.652;6.172;2024-01-30T11:46:37;10.60;;;3.95;;
22861;SDS011;11598;50.652;6.172;2024-01-30T11:56:37;13.43;;;4.80;;
22861;SDS011;11598;50.652;6.172;2024-01-30T12:06:40;7.93;;;4.27;;
22861;SDS011;11598;50.652;6.172;2024-01-30T12:16:41;8.77;;;4.53;;
22861;SDS011;11598;50.652;6.172;2024-01-30T12:26:42;13.10;;;4.80;;
22861;SDS011;11598;50.652;6.172;2024-01-30T12:36:42;9.38;;;4.55;;
22861;SDS011;11598;50.652;6.172;2024-01-30T12:46:43;10.60;;;4.75;;
22861;SDS011;11598;50.652;6.172;2024-01-30T12:56:44;11.60;;;4.65;;
22861;SDS011;11598;50.652;6.172;2024-01-30T13:06:44;10.48;;;4.32;;
22861;SDS011;11598;50.652;6.172;2024-01-30T13:16:45;8.10;;;4.40;;
22861;SDS011;11598;50.652;6.172;2024-01-30T13:26:45;8.77;;;4.25;;
22861;SDS011;11598;50.652;6.172;2024-01-30T13:36:45;11.70;;;4.97;;
22861;SDS011;11598;50.652;6.172;2024-01-30T13:46:46;13.57;;;5.33;;
22861;SDS011;11598;50.652;6.172;2024-01-30T13:56:47;13.40;;;6.03;;
22861;SDS011;11598;50.652;6.172;2024-01-30T14:06:47;11.23;;;5.82;;
22861;SDS011;11598;50.652;6.172;2024-01-30T14:16:47;10.88;;;6.50;;
22861;SDS011;11598;50.652;6.172;2024-01-30T14:26:48;18.65;;;7.35;;
22861;SDS011;11598;50.652;6.172;2024-01-30T14:36:48;16.02;;;7.10;;
22861;SDS011;11598;50.652;6.172;2024-01-30T14:46:49;14.63;;;6.90;;
22861;SDS011;11598;50.652;6.172;2024-01-30T14:56:49;15.23;;;7.40;;
22861;SDS011;11598;50.652;6.172;2024-01-30T15:06:50;10.85;;;6.60;;
22861;SDS011;11598;50.652;6.172;2024-01-30T15:16:50;13.60;;;6.75;;
22861;SDS011;11598;50.652;6.172;2024-01-30T15:26:51;17.15;;;7.60;;
22861;SDS011;11598;50.652;6.172;2024-01-30T15:36:52;16.60;;;7.82;;
22861;SDS011;11598;50.652;6.172;2024-01-30T15:46:52;16.52;;;8.10;;
22861;SDS011;11598;50.652;6.172;2024-01-30T15:56:53;13.80;;;8.38;;
22861;SDS011;11598;50.652;6.172;2024-01-30T16:06:53;16.33;;;6.60;;
22861;SDS011;11598;50.652;6.172;2024-01-30T16:16:54;17.10;;;6.80;;
22861;SDS011;11598;50.652;6.172;2024-01-30T16:26:54;12.75;;;4.22;;
22861;SDS011;11598;50.652;6.172;2024-01-30T16:36:54;11.02;;;3.58;;
22861;SDS011;11598;50.652;6.172;2024-01-30T16:46:55;8.90;;;2.65;;
22861;SDS011;11598;50.652;6.172;2024-01-30T16:56:55;7.47;;;2.20;;
22861;SDS011;11598;50.652;6.172;2024-01-30T17:06:55;4.07;;;1.27;;
22861;SDS011;11598;50.652;6.172;2024-01-30T17:16:59;7.82;;;1.80;;
22861;SDS011;11598;50.652;6.172;2024-01-30T17:27:02;5.38;;;1.40;;
22861;SDS011;11598;50.652;6.172;2024-01-30T17:37:03;3.03;;;1.10;;
22861;SDS011;11598;50.652;6.172;2024-01-30T17:47:03;5.50;;;1.60;;
22861;SDS011;11598;50.652;6.172;2024-01-30T17:57:04;5.97;;;1.60;;
22861;SDS011;11598;50.652;6.172;2024-01-30T18:07:05;6.88;;;2.15;;
22861;SDS011;11598;50.652;6.172;2024-01-30T18:17:06;4.82;;;1.92;;
22861;SDS011;11598;50.652;6.172;2024-01-30T18:27:06;6.63;;;1.80;;
22861;SDS011;11598;50.652;6.172;2024-01-30T18:37:07;8.63;;;2.05;;
22861;SDS011;11598;50.652;6.172;2024-01-30T18:47:09;6.25;;;2.10;;
22861;SDS011;11598;50.652;6.172;2024-01-30T18:57:09;7.40;;;2.30;;
22861;SDS011;11598;50.652;6.172;2024-01-30T19:07:10;7.78;;;2.08;;
22861;SDS011;11598;50.652;6.172;2024-01-30T19:17:10;12.07;;;2.45;;
22861;SDS011;11598;50.652;6.172;2024-01-30T19:27:11;8.60;;;2.00;;
22861;SDS011;11598;50.652;6.172;2024-01-30T19:37:11;4.65;;;1.40;;
22861;SDS011;11598;50.652;6.172;2024-01-30T19:47:11;10.82;;;2.30;;
22861;SDS011;11598;50.652;6.172;2024-01-30T19:57:12;11.40;;;2.25;;
22861;SDS011;11598;50.652;6.172;2024-01-30T20:07:12;8.05;;;2.10;;
22861;SDS011;11598;50.652;6.172;2024-01-30T20:17:13;6.65;;;2.13;;
22861;SDS011;11598;50.652;6.172;2024-01-30T20:27:14;5.13;;;1.67;;
22861;SDS011;11598;50.652;6.172;2024-01-30T20:37:14;6.18;;;1.85;;
22861;SDS011;11598;50.652;6.172;2024-01-30T20:47:15;6.72;;;1.63;;
22861;SDS011;11598;50.652;6.172;2024-01-30T20:57:15;5.10;;;1.90;;
22861;SDS011;11598;50.652;6.172;2024-01-30T21:07:15;6.30;;;2.13;;
22861;SDS011;11598;50.652;6.172;2024-01-30T21:17:16;7.50;;;2.13;;
22861;SDS011;11598;50.652;6.172;2024-01-30T21:27:17;8.57;;;2.42;;
22861;SDS011;11598;50.652;6.172;2024-01-30T21:37:17;11.18;;;2.95;;
22861;SDS011;11598;50.652;6.172;2024-01-30T21:47:17;8.90;;;2.85;;
22861;SDS011;11598;50.652;6.172;2024-01-30T21:57:18;8.00;;;2.63;;
22861;SDS011;11598;50.652;6.172;2024-01-30T22:07:18;5.55;;;2.22;;
22861;SDS011;11598;50.652;6.172;2024-01-30T22:17:18;7.88;;;2.97;;
22861;SDS011;11598;50.652;6.172;2024-01-30T22:27:19;7.03;;;2.25;;
22861;SDS011;11598;50.652;6.172;2024-01-30T22:37:19;8.65;;;3.25;;
22861;SDS011;11598;50.652;6.172;2024-01-30T22:47:20;10.73;;;3.10;;
22861;SDS011;11598;50.652;6.172;2024-01-30T22:57:20;7.40;;;3.08;;
22861;SDS011;11598;50.652;6.172;2024-01-30T23:07:20;10.07;;;3.35;;
22861;SDS011;11598;50.652;6.172;2024-01-30T23:17:21;8.10;;;4.03;;
22861;SDS011;11598;50.652;6.172;2024-01-30T23:27:21;12.88;;;4.90;;
22861;SDS011;11598;50.652;6.172;2024-01-30T23:37:21;10.15;;;5.38;;
22861;SDS011;11598;50.652;6.172;2024-01-30T23:47:22;11.18;;;5.45;;
22861;SDS011;11598;50.652;6.172;2024-01-30T23:57:22;14.02;;;6.45;;
